sensor_id;sensor_type;location;lat;lon;timestamp;pressure;altitude;pressure_sealevel;temperature;humidity
28312;BME280;15572;48.810;9.148;2023-04-01T00:02:05;96767.34;;;8.56;100.00
28312;BME280;15572;48.810;9.148;2023-04-01T00:07:01;96774.38;;;8.64;100.00
28312;BME280;15572;48.810;9.148;2023-04-01T00:11:59;96779.09;;;8.68;100.00
28312;BME280;15572;48.810;9.148;2023-04-01T00:16:56;96780.44;;;8.84;100.00
28312;BME280;15572;48.810;9.148;2023-04-01T00:21:52;96777.91;;;8.89;100.00
28312;BME280;15572;48.810;9.148;2023-04-01T00:26:49;96779.72;;;8.70;100.00
28312;BME280;15572;48.810;9.148;2023-04-01T00:31:46;96781.59;;;8.70;100.00
28312;BME280;15572;48.810;9.148;2023-04-01T00:36:44;96782.41;;;8.70;100.00
28312;BME280;15572;48.810;9.148;2023-04-01T00:41:40;96782.41;;;8.70;100.00
28312;BME280;15572;48.810;9.148;2023-04-01T00:46:37;96783.84;;;8.73;100.00
28312;BME280;15572;48.810;9.148;2023-04-01T00:51:36;96790.91;;;8.74;100.00
28312;BME280;15572;48.810;9.148;2023-04-01T00:56:35;96786.75;;;8.71;100.00
28312;BME280;15572;48.810;9.148;2023-04-01T01:01:34;96792.94;;;8.78;100.00
28312;BME280;15572;48.810;9.148;2023-04-01T01:06:39;96790.44;;;8.77;100.00
28312;BME280;15572;48.810;9.148;2023-04-01T01:11:43;96788.19;;;8.99;100.00
28312;BME280;15572;48.810;9.148;2023-04-01T01:16:45;96783.94;;;8.60;100.00
28312;BME280;15572;48.810;9.148;2023-04-01T01:22:07;96779.00;;;8.50;100.00
28312;BME280;15572;48.810;9.148;2023-04-01T01:27:12;96781.13;;;8.48;100.00
28312;BME280;15572;48.810;9.148;2023-04-01T01:32:22;96783.00;;;8.41;100.00
28312;BME280;15572;48.810;9.148;2023-04-01T01:37:27;96791.31;;;8.39;100.00
28312;BME280;15572;48.810;9.148;2023-04-01T01:42:27;96786.09;;;8.44;100.00
28312;BME280;15572;48.810;9.148;2023-04-01T01:47:26;96782.00;;;8.35;100.00
28312;BME280;15572;48.810;9.148;2023-04-01T01:52:27;96789.91;;;8.37;100.00
28312;BME280;15572;48.810;9.148;2023-04-01T01:57:26;96782.66;;;8.24;100.00
28312;BME280;15572;48.810;9.148;2023-04-01T02:02:25;96764.72;;;8.12;100.00
28312;BME280;15572;48.810;9.148;2023-04-01T02:07:27;96778.41;;;8.03;100.00
28312;BME280;15572;48.810;9.148;2023-04-01T02:12:27;96778.59;;;8.09;100.00
28312;BME280;15572;48.810;9.148;2023-04-01T02:17:26;96778.81;;;8.07;100.00
28312;BME280;15572;48.810;9.148;2023-04-01T02:22:27;96788.72;;;8.13;100.00
28312;BME280;15572;48.810;9.148;2023-04-01T02:27:25;96781.25;;;8.15;100.00
28312;BME280;15572;48.810;9.148;2023-04-01T02:32:22;96792.28;;;8.07;100.00
28312;BME280;15572;48.810;9.148;2023-04-01T02:37:18;96782.78;;;7.98;100.00
28312;BME280;15572;48.810;9.148;2023-04-01T02:42:16;96789.84;;;7.92;100.00
28312;BME280;15572;48.810;9.148;2023-04-01T02:47:12;96787.19;;;7.86;100.00
28312;BME280;15572;48.810;9.148;2023-04-01T02:52:09;96785.94;;;7.88;100.00
28312;BME280;15572;48.810;9.148;2023-04-01T02:57:06;96785.94;;;7.88;100.00
28312;BME280;15572;48.810;9.148;2023-04-01T03:02:04;96789.03;;;7.85;100.00
28312;BME280;15572;48.810;9.148;2023-04-01T03:07:00;96785.09;;;7.94;100.00
28312;BME280;15572;48.810;9.148;2023-04-01T03:11:57;96789.00;;;8.05;100.00
28312;BME280;15572;48.810;9.148;2023-04-01T03:16:53;96791.25;;;8.08;100.00
28312;BME280;15572;48.810;9.148;2023-04-01T03:21:51;96792.91;;;8.02;100.00
28312;BME280;15572;48.810;9.148;2023-04-01T03:26:47;96781.78;;;7.92;100.00
28312;BME280;15572;48.810;9.148;2023-04-01T03:31:44;96786.09;;;8.07;100.00
28312;BME280;15572;48.810;9.148;2023-04-01T03:36:41;96791.25;;;8.01;100.00
28312;BME280;15572;48.810;9.148;2023-04-01T03:41:39;96788.00;;;7.93;100.00
28312;BME280;15572;48.810;9.148;2023-04-01T03:46:35;96788.00;;;7.93;100.00
28312;BME280;15572;48.810;9.148;2023-04-01T03:51:32;96784.25;;;7.94;100.00
28312;BME280;15572;48.810;9.148;2023-04-01T03:56:28;96779.72;;;7.88;100.00
28312;BME280;15572;48.810;9.148;2023-04-01T04:01:26;96777.41;;;7.91;100.00
28312;BME280;15572;48.810;9.148;2023-04-01T04:06:23;96769.97;;;7.93;100.00
28312;BME280;15572;48.810;9.148;2023-04-01T04:11:21;96774.28;;;8.01;100.00
28312;BME280;15572;48.810;9.148;2023-04-01T04:16:17;96765.13;;;8.09;100.00
28312;BME280;15572;48.810;9.148;2023-04-01T04:21:15;96769.66;;;8.15;100.00
28312;BME280;15572;48.810;9.148;2023-04-01T04:26:14;96763.03;;;8.17;100.00
28312;BME280;15572;48.810;9.148;2023-04-01T04:31:11;96763.44;;;8.14;100.00
28312;BME280;15572;48.810;9.148;2023-04-01T04:36:08;96762.41;;;8.09;100.00
28312;BME280;15572;48.810;9.148;2023-04-01T04:41:09;96764.75;;;7.98;100.00
28312;BME280;15572;48.810;9.148;2023-04-01T04:46:07;96755.22;;;7.96;100.00
28312;BME280;15572;48.810;9.148;2023-04-01T04:51:04;96765.00;;;7.90;100.00
28312;BME280;15572;48.810;9.148;2023-04-01T04:56:00;96760.69;;;7.83;100.00
28312;BME280;15572;48.810;9.148;2023-04-01T05:00:58;96752.22;;;7.79;100.00
28312;BME280;15572;48.810;9.148;2023-04-01T05:05:54;96754.28;;;7.77;100.00
28312;BME280;15572;48.810;9.148;2023-04-01T05:10:51;96748.50;;;7.74;100.00
28312;BME280;15572;48.810;9.148;2023-04-01T05:15:47;96745.81;;;7.67;100.00
28312;BME280;15572;48.810;9.148;2023-04-01T05:20:49;96748.13;;;7.64;100.00
28312;BME280;15572;48.810;9.148;2023-04-01T05:25:46;96745.25;;;7.58;100.00
28312;BME280;15572;48.810;9.148;2023-04-01T05:30:43;96737.75;;;7.67;100.00
28312;BME280;15572;48.810;9.148;2023-04-01T05:35:40;96743.28;;;7.79;100.00
28312;BME280;15572;48.810;9.148;2023-04-01T05:40:38;96743.41;;;7.97;100.00
28312;BME280;15572;48.810;9.148;2023-04-01T05:45:35;96727.84;;;7.99;100.00
28312;BME280;15572;48.810;9.148;2023-04-01T05:50:31;96718.81;;;8.18;100.00
28312;BME280;15572;48.810;9.148;2023-04-01T05:55:28;96723.47;;;8.42;100.00
28312;BME280;15572;48.810;9.148;2023-04-01T06:00:26;96726.66;;;8.64;100.00
28312;BME280;15572;48.810;9.148;2023-04-01T06:05:24;96710.34;;;8.77;100.00
28312;BME280;15572;48.810;9.148;2023-04-01T06:10:22;96713.81;;;8.84;100.00
28312;BME280;15572;48.810;9.148;2023-04-01T06:15:36;96707.59;;;8.84;100.00
28312;BME280;15572;48.810;9.148;2023-04-01T06:20:41;96704.69;;;9.04;98.59
28312;BME280;15572;48.810;9.148;2023-04-01T06:25:47;96712.22;;;9.20;96.64
28312;BME280;15572;48.810;9.148;2023-04-01T06:30:54;96716.25;;;9.11;98.75
28312;BME280;15572;48.810;9.148;2023-04-01T06:36:06;96711.16;;;9.21;97.73
28312;BME280;15572;48.810;9.148;2023-04-01T06:46:44;96714.25;;;9.24;95.95
28312;BME280;15572;48.810;9.148;2023-04-01T06:51:47;96713.81;;;9.27;96.73
28312;BME280;15572;48.810;9.148;2023-04-01T06:56:51;96716.19;;;9.17;98.01
28312;BME280;15572;48.810;9.148;2023-04-01T07:01:56;96721.03;;;9.34;98.12
28312;BME280;15572;48.810;9.148;2023-04-01T07:06:55;96717.50;;;9.33;96.80
28312;BME280;15572;48.810;9.148;2023-04-01T07:11:55;96722.69;;;9.35;97.85
28312;BME280;15572;48.810;9.148;2023-04-01T07:16:59;96727.31;;;9.27;98.92
28312;BME280;15572;48.810;9.148;2023-04-01T07:22:00;96730.53;;;9.36;98.55
28312;BME280;15572;48.810;9.148;2023-04-01T07:26:58;96739.09;;;9.33;100.00
28312;BME280;15572;48.810;9.148;2023-04-01T07:32:14;96745.53;;;9.32;100.00
28312;BME280;15572;48.810;9.148;2023-04-01T07:37:16;96755.97;;;9.28;100.00
28312;BME280;15572;48.810;9.148;2023-04-01T07:42:21;96745.09;;;9.35;99.66
28312;BME280;15572;48.810;9.148;2023-04-01T07:47:35;96743.38;;;9.41;99.35
28312;BME280;15572;48.810;9.148;2023-04-01T07:52:43;96743.44;;;9.52;99.87
28312;BME280;15572;48.810;9.148;2023-04-01T07:57:49;96741.13;;;9.74;97.98
28312;BME280;15572;48.810;9.148;2023-04-01T08:03:04;96745.41;;;9.82;97.86
28312;BME280;15572;48.810;9.148;2023-04-01T08:08:10;96748.41;;;9.73;98.42
28312;BME280;15572;48.810;9.148;2023-04-01T08:13:15;96768.84;;;9.88;97.21
28312;BME280;15572;48.810;9.148;2023-04-01T08:18:22;96751.50;;;9.77;97.38
28312;BME280;15572;48.810;9.148;2023-04-01T08:23:27;96761.25;;;9.78;98.10
28312;BME280;15572;48.810;9.148;2023-04-01T08:28:29;96746.25;;;9.82;98.85
28312;BME280;15572;48.810;9.148;2023-04-01T08:33:30;96760.41;;;9.96;99.57
28312;BME280;15572;48.810;9.148;2023-04-01T08:38:31;96764.69;;;9.67;100.00
28312;BME280;15572;48.810;9.148;2023-04-01T08:43:44;96779.09;;;9.43;100.00
28312;BME280;15572;48.810;9.148;2023-04-01T08:49:00;96765.34;;;8.76;100.00
28312;BME280;15572;48.810;9.148;2023-04-01T08:54:22;96753.72;;;8.44;100.00
28312;BME280;15572;48.810;9.148;2023-04-01T08:59:36;96761.28;;;8.29;100.00
28312;BME280;15572;48.810;9.148;2023-04-01T09:10:27;96754.09;;;8.55;100.00
28312;BME280;15572;48.810;9.148;2023-04-01T09:15:45;96750.31;;;8.87;100.00
28312;BME280;15572;48.810;9.148;2023-04-01T09:20:58;96753.19;;;9.17;100.00
28312;BME280;15572;48.810;9.148;2023-04-01T09:26:11;96768.13;;;9.38;100.00
28312;BME280;15572;48.810;9.148;2023-04-01T09:31:23;96770.53;;;9.46;100.00
28312;BME280;15572;48.810;9.148;2023-04-01T09:36:36;96775.19;;;9.57;100.00
28312;BME280;15572;48.810;9.148;2023-04-01T09:41:40;96784.13;;;9.39;100.00
28312;BME280;15572;48.810;9.148;2023-04-01T09:46:52;96772.09;;;9.35;100.00
28312;BME280;15572;48.810;9.148;2023-04-01T09:52:06;96772.66;;;9.44;100.00
28312;BME280;15572;48.810;9.148;2023-04-01T09:57:31;96781.28;;;9.52;100.00
28312;BME280;15572;48.810;9.148;2023-04-01T10:02:59;96776.91;;;9.51;100.00
28312;BME280;15572;48.810;9.148;2023-04-01T10:08:31;96792.16;;;9.64;99.22
28312;BME280;15572;48.810;9.148;2023-04-01T10:13:53;96788.56;;;9.88;96.79
28312;BME280;15572;48.810;9.148;2023-04-01T10:19:12;96792.69;;;10.09;94.72
28312;BME280;15572;48.810;9.148;2023-04-01T10:24:43;96788.88;;;10.35;93.90
28312;BME280;15572;48.810;9.148;2023-04-01T10:30:05;96783.72;;;10.45;90.55
28312;BME280;15572;48.810;9.148;2023-04-01T10:35:22;96792.56;;;10.22;93.99
28312;BME280;15572;48.810;9.148;2023-04-01T10:40:36;96777.00;;;9.99;96.85
28312;BME280;15572;48.810;9.148;2023-04-01T10:46:00;96794.28;;;10.17;93.28
28312;BME280;15572;48.810;9.148;2023-04-01T10:51:29;96797.88;;;10.29;90.24
28312;BME280;15572;48.810;9.148;2023-04-01T10:56:38;96784.34;;;10.29;89.61
28312;BME280;15572;48.810;9.148;2023-04-01T11:02:12;96806.28;;;10.21;91.10
28312;BME280;15572;48.810;9.148;2023-04-01T11:07:26;96797.75;;;10.24;91.78
28312;BME280;15572;48.810;9.148;2023-04-01T11:12:48;96796.38;;;10.33;86.68
28312;BME280;15572;48.810;9.148;2023-04-01T11:18:20;96811.31;;;10.65;84.18
28312;BME280;15572;48.810;9.148;2023-04-01T11:23:37;96803.63;;;10.92;82.39
28312;BME280;15572;48.810;9.148;2023-04-01T11:28:58;96814.41;;;11.10;82.13
28312;BME280;15572;48.810;9.148;2023-04-01T11:34:04;96811.09;;;11.08;81.53
28312;BME280;15572;48.810;9.148;2023-04-01T11:39:16;96821.16;;;11.43;78.46
28312;BME280;15572;48.810;9.148;2023-04-01T11:44:22;96808.88;;;11.40;78.48
28312;BME280;15572;48.810;9.148;2023-04-01T11:49:44;96815.63;;;11.37;78.84
28312;BME280;15572;48.810;9.148;2023-04-01T11:55:10;96812.50;;;10.99;82.20
28312;BME280;15572;48.810;9.148;2023-04-01T12:00:25;96827.56;;;11.07;82.76
28312;BME280;15572;48.810;9.148;2023-04-01T12:05:38;96818.47;;;11.01;83.42
28312;BME280;15572;48.810;9.148;2023-04-01T12:10:39;96827.56;;;10.95;85.02
28312;BME280;15572;48.810;9.148;2023-04-01T12:15:52;96841.56;;;11.04;85.43
28312;BME280;15572;48.810;9.148;2023-04-01T12:20:57;96834.03;;;10.64;95.41
28312;BME280;15572;48.810;9.148;2023-04-01T12:26:25;96847.69;;;10.39;90.56
28312;BME280;15572;48.810;9.148;2023-04-01T12:31:35;96842.00;;;10.59;92.37
28312;BME280;15572;48.810;9.148;2023-04-01T12:36:47;96843.91;;;10.88;89.55
28312;BME280;15572;48.810;9.148;2023-04-01T12:41:53;96839.84;;;11.21;88.02
28312;BME280;15572;48.810;9.148;2023-04-01T12:47:12;96835.69;;;11.07;84.45
28312;BME280;15572;48.810;9.148;2023-04-01T12:52:14;96845.16;;;11.16;83.68
28312;BME280;15572;48.810;9.148;2023-04-01T13:02:44;96841.63;;;11.27;81.12
28312;BME280;15572;48.810;9.148;2023-04-01T13:07:59;96855.53;;;11.30;80.51
28312;BME280;15572;48.810;9.148;2023-04-01T13:13:16;96865.63;;;10.82;85.60
28312;BME280;15572;48.810;9.148;2023-04-01T13:18:28;96871.41;;;10.85;85.31
28312;BME280;15572;48.810;9.148;2023-04-01T13:23:34;96864.25;;;10.91;85.61
28312;BME280;15572;48.810;9.148;2023-04-01T13:28:37;96869.31;;;11.29;82.05
28312;BME280;15572;48.810;9.148;2023-04-01T13:33:39;96876.25;;;11.25;80.39
28312;BME280;15572;48.810;9.148;2023-04-01T13:38:48;96877.91;;;11.26;79.80
28312;BME280;15572;48.810;9.148;2023-04-01T13:43:50;96879.09;;;11.30;80.02
28312;BME280;15572;48.810;9.148;2023-04-01T13:54:38;96890.34;;;11.15;79.93
28312;BME280;15572;48.810;9.148;2023-04-01T13:59:46;96893.75;;;11.11;79.38
28312;BME280;15572;48.810;9.148;2023-04-01T14:05:01;96888.44;;;11.04;82.57
28312;BME280;15572;48.810;9.148;2023-04-01T14:10:13;96893.06;;;11.15;82.73
28312;BME280;15572;48.810;9.148;2023-04-01T14:15:28;96895.00;;;11.26;81.34
28312;BME280;15572;48.810;9.148;2023-04-01T14:20:36;96921.50;;;11.06;81.74
28312;BME280;15572;48.810;9.148;2023-04-01T14:25:54;96907.56;;;10.91;82.80
28312;BME280;15572;48.810;9.148;2023-04-01T14:31:18;96909.91;;;10.58;89.56
28312;BME280;15572;48.810;9.148;2023-04-01T14:36:34;96900.50;;;10.42;93.05
28312;BME280;15572;48.810;9.148;2023-04-01T14:41:42;96910.44;;;10.30;92.76
28312;BME280;15572;48.810;9.148;2023-04-01T14:47:08;96915.78;;;10.36;94.16
28312;BME280;15572;48.810;9.148;2023-04-01T14:52:14;96917.19;;;10.57;89.48
28312;BME280;15572;48.810;9.148;2023-04-01T14:57:14;96914.78;;;10.67;88.62
28312;BME280;15572;48.810;9.148;2023-04-01T15:02:30;96912.47;;;10.82;87.54
28312;BME280;15572;48.810;9.148;2023-04-01T15:07:49;96921.88;;;10.80;87.48
28312;BME280;15572;48.810;9.148;2023-04-01T15:12:56;96914.38;;;10.82;87.06
28312;BME280;15572;48.810;9.148;2023-04-01T15:18:08;96922.69;;;10.80;88.15
28312;BME280;15572;48.810;9.148;2023-04-01T15:23:13;96919.38;;;10.96;86.95
28312;BME280;15572;48.810;9.148;2023-04-01T15:28:21;96922.94;;;11.09;87.38
28312;BME280;15572;48.810;9.148;2023-04-01T15:33:32;96937.41;;;11.03;86.42
28312;BME280;15572;48.810;9.148;2023-04-01T15:38:37;96947.97;;;10.92;86.33
28312;BME280;15572;48.810;9.148;2023-04-01T15:43:41;96940.38;;;10.83;87.49
28312;BME280;15572;48.810;9.148;2023-04-01T15:48:50;96951.78;;;10.85;87.00
28312;BME280;15572;48.810;9.148;2023-04-01T15:54:06;96949.41;;;10.77;86.32
28312;BME280;15572;48.810;9.148;2023-04-01T15:59:18;96963.69;;;10.66;84.82
28312;BME280;15572;48.810;9.148;2023-04-01T16:04:30;96962.72;;;10.78;85.13
28312;BME280;15572;48.810;9.148;2023-04-01T16:09:42;96970.31;;;10.70;84.70
28312;BME280;15572;48.810;9.148;2023-04-01T16:14:51;96965.94;;;10.69;84.28
28312;BME280;15572;48.810;9.148;2023-04-01T16:19:53;96976.19;;;10.67;84.40
28312;BME280;15572;48.810;9.148;2023-04-01T16:24:58;96979.44;;;10.57;83.60
28312;BME280;15572;48.810;9.148;2023-04-01T16:30:01;96979.28;;;10.52;83.04
28312;BME280;15572;48.810;9.148;2023-04-01T16:35:13;96987.31;;;10.40;83.07
28312;BME280;15572;48.810;9.148;2023-04-01T16:40:26;96991.69;;;10.41;83.82
28312;BME280;15572;48.810;9.148;2023-04-01T16:45:35;96996.69;;;10.38;85.40
28312;BME280;15572;48.810;9.148;2023-04-01T16:50:43;96988.41;;;10.33;86.33
28312;BME280;15572;48.810;9.148;2023-04-01T16:55:49;97001.03;;;10.39;86.82
28312;BME280;15572;48.810;9.148;2023-04-01T17:00:49;96991.06;;;10.39;87.72
28312;BME280;15572;48.810;9.148;2023-04-01T17:05:54;96997.72;;;10.37;88.88
28312;BME280;15572;48.810;9.148;2023-04-01T17:11:01;96988.63;;;10.31;89.78
28312;BME280;15572;48.810;9.148;2023-04-01T17:16:13;96998.56;;;10.37;89.81
28312;BME280;15572;48.810;9.148;2023-04-01T17:21:15;96997.22;;;10.28;91.73
28312;BME280;15572;48.810;9.148;2023-04-01T17:26:21;97010.53;;;10.48;89.99
28312;BME280;15572;48.810;9.148;2023-04-01T17:31:39;97015.19;;;10.41;90.34
28312;BME280;15572;48.810;9.148;2023-04-01T17:36:50;97017.75;;;10.36;90.99
28312;BME280;15572;48.810;9.148;2023-04-01T17:41:54;97039.97;;;10.38;91.51
28312;BME280;15572;48.810;9.148;2023-04-01T17:47:25;97038.59;;;10.29;93.16
28312;BME280;15572;48.810;9.148;2023-04-01T17:52:29;97046.41;;;10.37;95.28
28312;BME280;15572;48.810;9.148;2023-04-01T17:57:42;97067.06;;;10.06;100.00
28312;BME280;15572;48.810;9.148;2023-04-01T18:02:47;97073.81;;;9.91;100.00
28312;BME280;15572;48.810;9.148;2023-04-01T18:08:02;97076.31;;;9.61;100.00
28312;BME280;15572;48.810;9.148;2023-04-01T18:13:16;97073.31;;;9.44;100.00
28312;BME280;15572;48.810;9.148;2023-04-01T18:18:32;97075.72;;;9.14;100.00
28312;BME280;15572;48.810;9.148;2023-04-01T18:23:36;97080.94;;;9.09;100.00
28312;BME280;15572;48.810;9.148;2023-04-01T18:28:38;97081.81;;;8.97;100.00
28312;BME280;15572;48.810;9.148;2023-04-01T18:33:42;97085.38;;;8.91;100.00
28312;BME280;15572;48.810;9.148;2023-04-01T18:38:47;97089.28;;;8.95;100.00
28312;BME280;15572;48.810;9.148;2023-04-01T18:43:57;97090.97;;;8.89;100.00
28312;BME280;15572;48.810;9.148;2023-04-01T18:49:11;97109.03;;;8.95;100.00
28312;BME280;15572;48.810;9.148;2023-04-01T18:54:13;97109.84;;;8.96;100.00
28312;BME280;15572;48.810;9.148;2023-04-01T19:04:19;97137.94;;;8.75;100.00
28312;BME280;15572;48.810;9.148;2023-04-01T19:09:22;97143.53;;;8.60;100.00
28312;BME280;15572;48.810;9.148;2023-04-01T19:14:30;97136.50;;;8.53;100.00
28312;BME280;15572;48.810;9.148;2023-04-01T19:19:44;97137.97;;;8.42;100.00
28312;BME280;15572;48.810;9.148;2023-04-01T19:25:00;97136.50;;;8.39;100.00
28312;BME280;15572;48.810;9.148;2023-04-01T19:30:10;97134.22;;;8.36;100.00
28312;BME280;15572;48.810;9.148;2023-04-01T19:35:19;97130.50;;;8.37;100.00
28312;BME280;15572;48.810;9.148;2023-04-01T19:40:34;97130.66;;;8.29;100.00
28312;BME280;15572;48.810;9.148;2023-04-01T19:45:38;97132.53;;;8.22;100.00
28312;BME280;15572;48.810;9.148;2023-04-01T19:50:42;97141.22;;;8.18;100.00
28312;BME280;15572;48.810;9.148;2023-04-01T19:55:48;97149.94;;;8.20;100.00
28312;BME280;15572;48.810;9.148;2023-04-01T20:00:49;97155.16;;;8.21;100.00
28312;BME280;15572;48.810;9.148;2023-04-01T20:05:56;97165.34;;;8.45;100.00
28312;BME280;15572;48.810;9.148;2023-04-01T20:11:06;97156.22;;;8.53;100.00
28312;BME280;15572;48.810;9.148;2023-04-01T20:16:07;97166.97;;;8.66;100.00
28312;BME280;15572;48.810;9.148;2023-04-01T20:21:08;97169.47;;;8.68;100.00
28312;BME280;15572;48.810;9.148;2023-04-01T20:26:13;97177.38;;;8.69;100.00
28312;BME280;15572;48.810;9.148;2023-04-01T20:31:25;97175.91;;;8.80;100.00
28312;BME280;15572;48.810;9.148;2023-04-01T20:36:30;97185.25;;;8.77;100.00
28312;BME280;15572;48.810;9.148;2023-04-01T20:41:39;97191.47;;;8.84;100.00
28312;BME280;15572;48.810;9.148;2023-04-01T20:46:45;97198.97;;;8.76;100.00
28312;BME280;15572;48.810;9.148;2023-04-01T20:51:53;97197.91;;;8.77;100.00
28312;BME280;15572;48.810;9.148;2023-04-01T20:56:58;97195.41;;;8.88;100.00
28312;BME280;15572;48.810;9.148;2023-04-01T21:02:08;97202.25;;;8.78;100.00
28312;BME280;15572;48.810;9.148;2023-04-01T21:07:20;97200.59;;;8.83;100.00
28312;BME280;15572;48.810;9.148;2023-04-01T21:12:28;97210.75;;;8.88;100.00
28312;BME280;15572;48.810;9.148;2023-04-01T21:17:37;97206.63;;;8.85;100.00
28312;BME280;15572;48.810;9.148;2023-04-01T21:22:50;97210.16;;;8.79;100.00
28312;BME280;15572;48.810;9.148;2023-04-01T21:28:18;97226.34;;;8.79;100.00
28312;BME280;15572;48.810;9.148;2023-04-01T21:33:30;97224.28;;;8.68;100.00
28312;BME280;15572;48.810;9.148;2023-04-01T21:38:38;97225.50;;;8.72;100.00
28312;BME280;15572;48.810;9.148;2023-04-01T21:49:27;97248.34;;;8.57;100.00
28312;BME280;15572;48.810;9.148;2023-04-01T21:54:50;97244.38;;;8.66;100.00
28312;BME280;15572;48.810;9.148;2023-04-01T22:00:19;97246.69;;;8.69;100.00
28312;BME280;15572;48.810;9.148;2023-04-01T22:05:18;97260.81;;;8.64;100.00
28312;BME280;15572;48.810;9.148;2023-04-01T22:10:25;97263.50;;;8.58;100.00
28312;BME280;15572;48.810;9.148;2023-04-01T22:15:40;97264.72;;;8.49;100.00
28312;BME280;15572;48.810;9.148;2023-04-01T22:20:44;97258.91;;;8.38;100.00
28312;BME280;15572;48.810;9.148;2023-04-01T22:25:50;97265.97;;;8.46;100.00
28312;BME280;15572;48.810;9.148;2023-04-01T22:30:52;97265.75;;;8.41;100.00
28312;BME280;15572;48.810;9.148;2023-04-01T22:35:57;97275.72;;;8.47;100.00
28312;BME280;15572;48.810;9.148;2023-04-01T22:41:04;97281.75;;;8.49;100.00
28312;BME280;15572;48.810;9.148;2023-04-01T22:46:23;97276.97;;;8.58;100.00
28312;BME280;15572;48.810;9.148;2023-04-01T22:51:26;97276.97;;;8.51;100.00
28312;BME280;15572;48.810;9.148;2023-04-01T22:56:32;97280.06;;;8.41;100.00
28312;BME280;15572;48.810;9.148;2023-04-01T23:01:33;97278.41;;;8.40;100.00
28312;BME280;15572;48.810;9.148;2023-04-01T23:06:38;97294.16;;;8.37;100.00
28312;BME280;15572;48.810;9.148;2023-04-01T23:11:43;97289.81;;;8.42;100.00
28312;BME280;15572;48.810;9.148;2023-04-01T23:16:44;97288.78;;;8.43;100.00
28312;BME280;15572;48.810;9.148;2023-04-01T23:21:45;97296.88;;;8.37;100.00
28312;BME280;15572;48.810;9.148;2023-04-01T23:26:52;97302.66;;;8.34;100.00
28312;BME280;15572;48.810;9.148;2023-04-01T23:31:56;97312.41;;;8.35;100.00
28312;BME280;15572;48.810;9.148;2023-04-01T23:36:55;97316.97;;;8.34;100.00
28312;BME280;15572;48.810;9.148;2023-04-01T23:41:55;97321.75;;;8.32;100.00
28312;BME280;15572;48.810;9.148;2023-04-01T23:46:53;97323.97;;;8.29;100.00
28312;BME280;15572;48.810;9.148;2023-04-01T23:51:53;97322.69;;;8.12;100.00
28312;BME280;15572;48.810;9.148;2023-04-01T23:56:55;97321.22;;;8.09;100.00
